createdAt,value
2018-07-06T00:00:48.772Z,100583.98
2018-07-06T00:03:28.537Z,100583.20
2018-07-06T00:06:08.314Z,100588.55
2018-07-06T00:08:47.990Z,100579.84
2018-07-06T00:11:27.669Z,100582.50
2018-07-06T00:14:07.230Z,100580.48
2018-07-06T00:16:46.847Z,100586.66
2018-07-06T00:19:26.406Z,100588.84
2018-07-06T00:22:06.086Z,100594.14
2018-07-06T00:24:45.924Z,100594.14
2018-07-06T00:27:25.425Z,100592.80
2018-07-06T00:30:05.124Z,100594.62
2018-07-06T00:32:44.918Z,100600.38
2018-07-06T00:35:24.641Z,100600.11
2018-07-06T00:38:04.209Z,100603.63
2018-07-06T00:40:43.703Z,100604.60
2018-07-06T00:43:23.362Z,100602.02
2018-07-06T00:46:03.116Z,100605.16
2018-07-06T00:48:42.750Z,100612.33
2018-07-06T00:51:22.407Z,100604.75
2018-07-06T00:54:02.193Z,100605.68
2018-07-06T00:56:41.857Z,100608.19
2018-07-06T00:59:21.503Z,100611.00
2018-07-06T01:02:01.147Z,100607.64
2018-07-06T01:04:40.773Z,100608.53
2018-07-06T01:07:20.539Z,100611.22
2018-07-06T01:10:00.336Z,100609.38
2018-07-06T01:12:45.336Z,100611.00
2018-07-06T01:15:30.314Z,100614.36
2018-07-06T01:18:09.985Z,100617.89
2018-07-06T01:20:49.735Z,100615.08
2018-07-06T01:23:29.401Z,100619.87
2018-07-06T01:26:09.222Z,100614.71
2018-07-06T01:28:48.970Z,100616.89
2018-07-06T01:31:28.663Z,100616.22
2018-07-06T01:34:08.387Z,100618.22
2018-07-06T01:36:48.276Z,100609.38
2018-07-06T01:39:28.394Z,100613.59
2018-07-06T01:42:08.292Z,100608.42
2018-07-06T01:44:47.885Z,100619.80
2018-07-06T01:47:27.776Z,100616.78
2018-07-06T01:50:07.520Z,100616.44
2018-07-06T01:52:47.193Z,100617.63
2018-07-06T01:55:27.119Z,100593.30
2018-07-06T01:58:06.895Z,100612.43
2018-07-06T02:00:47.666Z,100620.37
2018-07-06T02:03:27.337Z,100621.41
2018-07-06T02:06:07.111Z,100620.63
2018-07-06T02:08:47.088Z,100625.98
2018-07-06T02:11:26.993Z,100624.17
2018-07-06T02:14:06.573Z,100627.39
2018-07-06T02:16:46.275Z,100629.94
2018-07-06T02:19:25.876Z,100628.25
2018-07-06T02:22:05.449Z,100629.38
2018-07-06T02:24:45.166Z,100631.10
2018-07-06T02:27:24.831Z,100628.03
2018-07-06T02:30:04.475Z,100640.87
2018-07-06T02:32:44.195Z,100639.89
2018-07-06T02:35:23.901Z,100642.88
2018-07-06T02:38:03.465Z,100639.34
2018-07-06T02:40:43.157Z,100648.34
2018-07-06T02:43:22.939Z,100644.66
2018-07-06T02:46:02.625Z,100650.64
2018-07-06T02:48:42.197Z,100654.00
2018-07-06T02:51:21.747Z,100660.83
2018-07-06T02:54:01.432Z,100656.97
2018-07-06T02:56:41.042Z,100660.86
2018-07-06T02:59:20.681Z,100657.84
2018-07-06T03:02:00.287Z,100657.20
2018-07-06T03:04:39.928Z,100658.67
2018-07-06T03:07:19.447Z,100661.20
2018-07-06T03:09:59.263Z,100661.42
2018-07-06T03:12:38.963Z,100660.58
2018-07-06T03:15:18.631Z,100662.24
2018-07-06T03:17:58.287Z,100658.73
2018-07-06T03:20:38.065Z,100657.07
2018-07-06T03:23:17.767Z,100657.62
2018-07-06T03:25:57.614Z,100661.35
2018-07-06T03:28:37.344Z,100658.35
2018-07-06T03:31:16.990Z,100658.53
2018-07-06T03:33:56.785Z,100663.38
2018-07-06T03:36:36.567Z,100666.84
2018-07-06T03:39:16.254Z,100665.85
2018-07-06T03:41:55.980Z,100667.39
2018-07-06T03:44:35.719Z,100664.88
2018-07-06T03:47:15.454Z,100667.97
2018-07-06T03:49:55.069Z,100673.33
2018-07-06T03:52:34.713Z,100677.14
2018-07-06T03:55:14.513Z,100674.69
2018-07-06T03:57:54.206Z,100678.48
2018-07-06T04:00:33.838Z,100686.56
2018-07-06T04:03:13.417Z,100689.15
2018-07-06T04:05:53.201Z,100693.05
2018-07-06T04:08:32.853Z,100687.62
2018-07-06T04:11:12.516Z,100695.83
2018-07-06T04:13:52.226Z,100690.30
2018-07-06T04:16:31.973Z,100695.55
2018-07-06T04:19:12.294Z,100693.19
2018-07-06T04:21:53.477Z,100695.55
2018-07-06T04:24:33.328Z,100705.06
2018-07-06T04:27:13.496Z,100703.92
2018-07-06T04:29:53.119Z,100706.06
2018-07-06T04:32:33.158Z,100716.66
2018-07-06T04:35:13.240Z,100713.98
2018-07-06T04:37:53.007Z,100720.27
2018-07-06T04:40:32.712Z,100719.61
2018-07-06T04:43:12.308Z,100724.27
2018-07-06T04:45:52.139Z,100719.61
2018-07-06T04:48:32.019Z,100721.27
2018-07-06T04:51:11.764Z,100720.49
2018-07-06T04:53:51.353Z,100726.10
2018-07-06T04:56:30.948Z,100733.72
2018-07-06T04:59:10.762Z,100731.80
2018-07-06T05:01:50.416Z,100730.31
2018-07-06T05:04:29.959Z,100731.05
2018-07-06T05:07:09.762Z,100738.34
2018-07-06T05:09:49.531Z,100735.87
2018-07-06T05:12:29.250Z,100741.66
2018-07-06T05:15:08.975Z,100739.14
2018-07-06T05:17:48.720Z,100734.34
2018-07-06T05:20:28.506Z,100742.78
2018-07-06T05:23:08.275Z,100745.80
2018-07-06T05:25:48.024Z,100742.92
2018-07-06T05:28:27.783Z,100751.86
2018-07-06T05:31:07.428Z,100751.80
2018-07-06T05:33:47.183Z,100758.86
2018-07-06T05:36:26.840Z,100751.86
2018-07-06T05:39:06.843Z,100754.70
2018-07-06T05:41:46.459Z,100753.34
2018-07-06T05:44:26.103Z,100751.73
2018-07-06T05:47:05.773Z,100750.87
2018-07-06T05:49:45.291Z,100756.78
2018-07-06T05:52:25.344Z,100752.42
2018-07-06T05:55:05.200Z,100756.98
2018-07-06T05:57:44.898Z,100754.67
2018-07-06T06:00:24.548Z,100763.27
2018-07-06T06:03:04.335Z,100759.80
2018-07-06T06:05:44.103Z,100767.98
2018-07-06T06:08:11.540Z,100770.01
2018-07-06T06:10:40.268Z,100769.36
2018-07-06T06:13:09.148Z,100769.95
2018-07-06T06:15:37.844Z,100777.03
2018-07-06T06:18:06.953Z,100775.99
2018-07-06T06:20:35.684Z,100784.36
2018-07-06T06:23:04.430Z,100786.39
2018-07-06T06:25:33.122Z,100781.19
2018-07-06T06:28:01.772Z,100787.44
2018-07-06T06:30:30.378Z,100787.47
2018-07-06T06:32:59.265Z,100787.98
2018-07-06T06:35:28.026Z,100784.45
2018-07-06T06:37:56.694Z,100787.53
2018-07-06T06:40:25.335Z,100785.79
2018-07-06T06:42:53.934Z,100670.80
2018-07-06T06:45:22.628Z,100789.15
2018-07-06T06:47:51.281Z,100782.89
2018-07-06T06:50:19.949Z,100787.49
2018-07-06T06:52:48.807Z,100789.10
2018-07-06T06:55:17.473Z,100797.09
2018-07-06T06:57:46.063Z,100792.47
2018-07-06T07:00:14.712Z,100790.30
2018-07-06T07:02:43.476Z,100799.13
2018-07-06T07:05:12.574Z,100794.47
2018-07-06T07:07:41.286Z,100792.78
2018-07-06T07:10:10.012Z,100787.46
2018-07-06T07:12:38.757Z,100796.84
2018-07-06T07:15:13.460Z,100795.00
2018-07-06T07:17:42.108Z,100799.70
2018-07-06T07:20:10.725Z,100794.95
2018-07-06T07:22:39.409Z,100797.45
2018-07-06T07:25:08.083Z,100793.63
2018-07-06T07:27:36.714Z,100806.44
2018-07-06T07:30:05.365Z,100801.61
2018-07-06T07:32:34.167Z,100801.45
2018-07-06T07:35:02.822Z,100799.02
2018-07-06T07:37:31.479Z,100812.38
2018-07-06T07:40:00.210Z,100822.65
2018-07-06T07:42:28.842Z,100818.33
2018-07-06T07:44:57.498Z,100819.42
2018-07-06T07:47:26.105Z,100817.28
2018-07-06T07:49:54.783Z,100825.67
2018-07-06T07:52:34.486Z,100824.72
2018-07-06T07:55:03.177Z,100827.15
2018-07-06T07:57:31.730Z,100832.11
2018-07-06T08:00:00.481Z,100834.66
2018-07-06T08:02:29.148Z,100834.00
2018-07-06T08:04:57.792Z,100836.89
2018-07-06T08:07:26.537Z,100831.56
2018-07-06T08:09:55.305Z,100835.27
2018-07-06T08:12:23.918Z,100837.26
2018-07-06T08:14:53.312Z,100836.34
2018-07-06T08:17:21.945Z,100841.98
2018-07-06T08:19:50.604Z,100847.63
2018-07-06T08:22:19.299Z,100844.78
2018-07-06T08:24:48.171Z,100848.31
2018-07-06T08:27:16.847Z,100843.52
2018-07-06T08:29:45.595Z,100845.05
2018-07-06T08:32:14.210Z,100850.80
2018-07-06T08:36:58.982Z,100848.46
2018-07-06T08:39:27.617Z,100844.29
2018-07-06T08:41:56.249Z,100846.63
2018-07-06T08:44:25.067Z,100849.08
2018-07-06T08:46:54.010Z,100851.56
2018-07-06T08:49:22.598Z,100851.45
2018-07-06T08:51:51.252Z,100847.66
2018-07-06T08:54:19.964Z,100844.83
2018-07-06T08:56:48.625Z,100841.80
2018-07-06T08:59:17.284Z,100846.06
2018-07-06T09:01:45.921Z,100839.63
2018-07-06T09:04:14.625Z,100840.34
2018-07-06T09:06:43.213Z,100846.22
2018-07-06T09:09:11.897Z,100847.37
2018-07-06T09:11:40.744Z,100848.89
2018-07-06T09:14:09.483Z,100843.37
2018-07-06T09:16:38.058Z,100841.33
2018-07-06T09:19:06.808Z,100843.52
2018-07-06T09:21:35.617Z,100841.97
2018-07-06T09:24:04.291Z,100845.95
2018-07-06T09:26:33.052Z,100851.42
2018-07-06T09:29:01.676Z,100852.76
2018-07-06T09:31:30.375Z,100855.98
2018-07-06T09:33:59.049Z,100854.30
2018-07-06T09:36:27.692Z,100856.38
2018-07-06T09:38:56.357Z,100854.55
2018-07-06T09:41:25.092Z,100859.27
2018-07-06T09:43:53.736Z,100863.50
2018-07-06T09:46:22.422Z,100872.24
2018-07-06T09:48:51.217Z,100872.73
2018-07-06T09:51:19.811Z,100874.07
2018-07-06T09:53:48.565Z,100875.88
2018-07-06T09:56:17.335Z,100877.24
2018-07-06T09:58:45.980Z,100874.17
2018-07-06T10:01:14.701Z,100878.89
2018-07-06T10:03:43.418Z,100873.02
2018-07-06T10:06:12.109Z,100879.74
2018-07-06T10:08:40.891Z,100884.61
2018-07-06T10:11:09.645Z,100873.38
2018-07-06T10:13:38.325Z,100875.70
2018-07-06T10:16:07.059Z,100873.20
2018-07-06T10:18:35.695Z,100876.25
2018-07-06T10:21:04.367Z,100886.17
2018-07-06T10:23:32.968Z,100892.69
2018-07-06T10:26:01.637Z,100886.12
2018-07-06T10:30:39.047Z,100886.12
2018-07-06T10:33:08.497Z,100892.04
2018-07-06T10:35:37.260Z,100888.17
2018-07-06T10:38:06.033Z,100890.81
2018-07-06T10:40:34.872Z,100891.52
2018-07-06T10:43:03.644Z,100886.95
2018-07-06T10:45:32.307Z,100889.02
2018-07-06T10:48:01.041Z,100893.02
2018-07-06T10:50:29.679Z,100892.67
2018-07-06T10:52:58.351Z,100890.31
2018-07-06T10:55:27.050Z,100898.06
2018-07-06T10:57:55.977Z,100897.06
2018-07-06T11:00:24.701Z,100895.84
2018-07-06T11:02:53.715Z,100908.97
2018-07-06T11:05:22.317Z,100890.50
2018-07-06T11:07:51.005Z,100889.50
2018-07-06T11:10:19.792Z,100890.20
2018-07-06T11:12:48.395Z,100897.75
2018-07-06T11:15:17.061Z,100891.00
2018-07-06T11:17:45.775Z,100897.91
2018-07-06T11:20:14.473Z,100894.50
2018-07-06T11:22:43.040Z,100888.08
2018-07-06T11:25:11.729Z,100891.28
2018-07-06T11:27:40.736Z,100894.30
2018-07-06T11:30:09.399Z,100889.09
2018-07-06T11:32:38.118Z,100892.59
2018-07-06T11:35:06.781Z,100889.95
2018-07-06T11:37:35.413Z,100881.37
2018-07-06T11:40:04.251Z,100886.51
2018-07-06T11:42:32.895Z,100892.38
2018-07-06T11:45:01.565Z,100889.86
2018-07-06T11:47:30.105Z,100886.73
2018-07-06T11:49:58.803Z,100884.05
2018-07-06T11:52:27.465Z,100880.17
2018-07-06T11:54:56.293Z,100875.08
2018-07-06T11:57:25.123Z,100881.83
2018-07-06T11:59:53.740Z,100880.36
2018-07-06T12:02:23.100Z,100878.54
2018-07-06T12:04:52.011Z,100878.67
2018-07-06T12:07:20.731Z,100873.85
2018-07-06T12:09:49.746Z,100881.47
2018-07-06T12:12:18.383Z,100871.44
2018-07-06T12:14:47.091Z,100871.92
2018-07-06T12:17:16.375Z,100865.86
2018-07-06T12:19:45.350Z,100873.53
2018-07-06T12:22:14.132Z,100864.52
2018-07-06T12:24:42.985Z,100870.59
2018-07-06T12:27:12.418Z,100872.71
2018-07-06T12:29:41.270Z,100873.59
2018-07-06T12:32:09.851Z,100876.51
2018-07-06T12:34:39.040Z,100870.92
2018-07-06T12:37:08.128Z,100877.59
2018-07-06T12:39:37.280Z,100873.56
2018-07-06T12:42:06.228Z,100876.52
2018-07-06T12:44:35.135Z,100882.62
2018-07-06T12:47:03.837Z,100879.81
2018-07-06T12:49:32.578Z,100885.80
2018-07-06T12:52:01.178Z,100875.73
2018-07-06T12:54:29.798Z,100883.67
2018-07-06T12:56:58.442Z,100890.25
2018-07-06T12:59:27.990Z,100889.41
2018-07-06T13:01:56.619Z,100895.17
2018-07-06T13:04:25.491Z,100888.73
2018-07-06T13:06:54.534Z,100890.58
2018-07-06T13:09:23.211Z,100881.33
2018-07-06T13:11:51.865Z,100891.80
2018-07-06T13:14:21.133Z,100891.42
2018-07-06T13:16:49.961Z,100890.80
2018-07-06T13:19:18.724Z,100887.52
2018-07-06T13:21:47.837Z,100891.35
2018-07-06T13:24:16.758Z,100890.77
2018-07-06T13:26:45.440Z,100887.27
2018-07-06T13:29:14.136Z,100893.98
2018-07-06T13:31:42.994Z,100881.71
2018-07-06T13:36:39.873Z,100883.53
2018-07-06T13:39:08.598Z,100879.19
2018-07-06T13:41:37.455Z,100883.63
2018-07-06T13:44:06.290Z,100889.13
2018-07-06T13:46:35.016Z,100890.29
2018-07-06T13:49:03.944Z,100892.13
2018-07-06T13:51:33.262Z,100896.64
2018-07-06T13:54:02.570Z,100897.19
2018-07-06T13:56:31.433Z,100906.30
2018-07-06T13:59:00.238Z,100905.05
2018-07-06T14:01:29.055Z,100903.44
2018-07-06T14:03:57.897Z,100908.28
2018-07-06T14:06:26.749Z,100904.32
2018-07-06T14:08:55.699Z,100905.00
2018-07-06T14:11:24.511Z,100905.67
2018-07-06T14:13:53.648Z,100903.28
2018-07-06T14:16:22.270Z,100908.95
2018-07-06T14:18:50.957Z,100911.19
2018-07-06T14:21:19.792Z,100911.55
2018-07-06T14:23:48.509Z,100916.77
2018-07-06T14:26:17.333Z,100920.50
2018-07-06T14:28:46.268Z,100922.21
2018-07-06T14:31:15.128Z,100923.56
2018-07-06T14:33:43.822Z,100925.23
2018-07-06T14:36:12.568Z,100925.02
2018-07-06T14:38:41.506Z,100925.02
2018-07-06T14:41:10.131Z,100926.86
2018-07-06T14:43:38.731Z,100922.12
2018-07-06T14:46:07.429Z,100925.22
2018-07-06T14:48:36.203Z,100926.22
2018-07-06T14:51:04.825Z,100921.48
2018-07-06T14:53:33.773Z,100922.69
2018-07-06T14:56:03.321Z,100924.64
2018-07-06T14:58:32.718Z,100926.66
2018-07-06T15:01:02.097Z,100928.04
2018-07-06T15:03:31.469Z,100935.11
2018-07-06T15:06:00.405Z,100931.80
2018-07-06T15:08:29.009Z,100931.44
2018-07-06T15:10:57.816Z,100933.95
2018-07-06T15:13:26.833Z,100933.14
2018-07-06T15:15:55.718Z,100941.85
2018-07-06T15:18:24.754Z,100942.14
2018-07-06T15:20:53.509Z,100941.79
2018-07-06T15:23:22.158Z,100939.46
2018-07-06T15:25:50.978Z,100948.35
2018-07-06T15:28:19.657Z,100936.90
2018-07-06T15:30:48.327Z,100944.15
2018-07-06T15:33:17.094Z,100947.70
2018-07-06T15:35:45.919Z,100946.84
2018-07-06T15:38:15.461Z,100942.95
2018-07-06T15:40:44.753Z,100945.68
2018-07-06T15:43:14.072Z,100943.63
2018-07-06T15:45:42.742Z,100937.92
2018-07-06T15:48:11.468Z,100947.81
2018-07-06T15:50:40.658Z,100939.24
2018-07-06T15:53:09.318Z,100938.41
2018-07-06T15:55:38.247Z,100942.08
2018-07-06T15:58:07.356Z,100940.70
2018-07-06T16:00:37.004Z,100943.73
2018-07-06T16:03:06.284Z,100950.09
2018-07-06T16:05:35.452Z,100942.49
2018-07-06T16:08:04.382Z,100946.19
2018-07-06T16:10:33.017Z,100943.47
2018-07-06T16:13:01.697Z,100950.33
2018-07-06T16:15:30.505Z,100947.30
2018-07-06T16:17:59.677Z,100939.52
2018-07-06T16:20:28.701Z,100944.23
2018-07-06T16:22:58.272Z,100944.23
2018-07-06T16:25:27.449Z,100939.02
2018-07-06T16:27:57.240Z,100938.42
2018-07-06T16:30:26.458Z,100946.36
2018-07-06T16:32:55.547Z,100947.16
2018-07-06T16:35:24.433Z,100942.16
2018-07-06T16:37:53.031Z,100942.02
2018-07-06T16:40:21.721Z,100941.52
2018-07-06T16:42:50.693Z,100947.91
2018-07-06T16:45:19.399Z,100947.40
2018-07-06T16:47:48.656Z,100942.38
2018-07-06T16:50:17.517Z,100940.92
2018-07-06T16:52:46.282Z,100942.46
2018-07-06T16:55:15.130Z,100946.16
2018-07-06T16:57:43.819Z,100938.63
2018-07-06T17:00:12.442Z,100948.83
2018-07-06T17:02:41.071Z,100950.36
2018-07-06T17:05:09.806Z,100940.14
2018-07-06T17:07:38.448Z,100943.34
2018-07-06T17:10:07.111Z,100940.84
2018-07-06T17:12:35.754Z,100948.21
2018-07-06T17:15:04.378Z,100944.38
2018-07-06T17:17:32.995Z,100945.20
2018-07-06T17:20:01.690Z,100942.69
2018-07-06T17:22:30.532Z,100941.84
2018-07-06T17:25:00.382Z,100946.38
2018-07-06T17:27:29.084Z,100942.38
2018-07-06T17:29:57.901Z,100939.52
2018-07-06T17:32:26.497Z,100943.39
2018-07-06T17:34:55.179Z,100941.36
2018-07-06T17:37:23.816Z,100941.02
2018-07-06T17:39:52.448Z,100938.34
2018-07-06T17:42:21.169Z,100933.98
2018-07-06T17:44:49.888Z,100939.69
2018-07-06T17:47:19.306Z,100936.48
2018-07-06T17:49:48.103Z,100935.84
2018-07-06T17:52:16.935Z,100931.81
2018-07-06T17:54:45.878Z,100937.16
2018-07-06T17:57:14.701Z,100940.70
2018-07-06T17:59:43.372Z,100947.02
2018-07-06T18:02:12.087Z,100944.02
2018-07-06T18:04:40.821Z,100946.70
2018-07-06T18:07:09.456Z,100947.02
2018-07-06T18:09:38.730Z,100950.22
2018-07-06T18:12:07.379Z,100952.03
2018-07-06T18:14:36.085Z,100956.20
2018-07-06T18:17:04.874Z,100953.67
2018-07-06T18:19:33.596Z,100961.23
2018-07-06T18:22:02.451Z,100953.68
2018-07-06T18:24:31.145Z,100959.36
2018-07-06T18:27:00.035Z,100959.52
2018-07-06T18:29:28.854Z,100955.34
2018-07-06T18:31:57.879Z,100964.20
2018-07-06T18:34:27.166Z,100962.36
2018-07-06T18:36:55.882Z,100957.99
2018-07-06T18:39:24.615Z,100966.23
2018-07-06T18:41:53.900Z,100969.37
2018-07-06T18:44:22.753Z,100971.38
2018-07-06T18:46:51.785Z,100970.22
2018-07-06T18:49:20.621Z,100970.03
2018-07-06T18:51:49.305Z,100964.36
2018-07-06T18:54:18.345Z,100965.70
2018-07-06T18:56:47.221Z,100968.04
2018-07-06T18:59:15.924Z,100967.34
2018-07-06T19:01:44.582Z,100974.40
2018-07-06T19:04:13.270Z,100966.66
2018-07-06T19:06:41.856Z,100978.04
2018-07-06T19:09:10.490Z,100973.02
2018-07-06T19:11:39.131Z,100978.23
2018-07-06T19:14:07.804Z,100972.67
2018-07-06T19:16:36.449Z,100984.74
2018-07-06T19:19:05.183Z,100983.75
2018-07-06T19:21:33.830Z,100985.44
2018-07-06T19:24:02.631Z,100980.72
2018-07-06T19:26:31.327Z,100985.89
2018-07-06T19:29:00.441Z,100985.70
2018-07-06T19:31:29.085Z,100989.48
2018-07-06T19:33:57.895Z,101000.38
2018-07-06T19:36:26.599Z,100992.52
2018-07-06T19:38:55.485Z,100994.74
2018-07-06T19:41:24.306Z,100986.05
2018-07-06T19:43:53.269Z,100984.36
2018-07-06T19:46:21.898Z,100981.17
2018-07-06T19:48:50.550Z,100984.28
2018-07-06T19:51:19.227Z,100871.23
2018-07-06T19:53:47.845Z,100983.43
2018-07-06T19:56:16.501Z,100984.08
2018-07-06T19:58:45.155Z,100992.97
2018-07-06T20:01:13.924Z,100985.61
2018-07-06T20:03:42.652Z,100991.92
2018-07-06T20:06:11.336Z,100999.46
2018-07-06T20:08:40.042Z,100998.08
2018-07-06T20:11:08.751Z,100993.70
2018-07-06T20:13:37.417Z,101002.23
2018-07-06T20:16:06.276Z,100998.70
2018-07-06T20:18:35.108Z,101007.09
2018-07-06T20:21:03.834Z,101007.89
2018-07-06T20:23:32.451Z,101009.87
2018-07-06T20:26:01.168Z,101008.19
2018-07-06T20:28:29.898Z,101003.66
2018-07-06T20:30:58.928Z,101009.16
2018-07-06T20:33:27.648Z,101009.80
2018-07-06T20:35:56.336Z,101008.61
2018-07-06T20:38:25.054Z,101010.42
2018-07-06T20:40:53.679Z,101006.06
2018-07-06T20:43:23.436Z,101012.61
2018-07-06T20:45:52.072Z,101027.69
2018-07-06T20:48:20.657Z,101020.66
2018-07-06T20:50:49.445Z,101021.64
2018-07-06T20:53:18.134Z,101019.95
2018-07-06T20:55:46.820Z,101027.97
2018-07-06T20:58:15.511Z,101026.80
2018-07-06T21:00:44.336Z,101024.81
2018-07-06T21:03:13.059Z,101022.98
2018-07-06T21:05:41.849Z,101025.45
2018-07-06T21:08:10.609Z,101025.16
2018-07-06T21:10:39.265Z,101025.95
2018-07-06T21:13:07.987Z,101029.47
2018-07-06T21:15:36.800Z,101025.11
2018-07-06T21:18:05.515Z,101024.59
2018-07-06T21:20:34.204Z,101022.06
2018-07-06T21:23:02.928Z,101032.98
2018-07-06T21:25:31.612Z,101026.58
2018-07-06T21:28:00.312Z,101031.56
2018-07-06T21:30:29.096Z,101034.53
2018-07-06T21:32:57.802Z,101030.23
2018-07-06T21:35:26.603Z,101034.86
2018-07-06T21:37:55.428Z,101031.00
2018-07-06T21:40:24.094Z,101037.36
2018-07-06T21:42:52.773Z,101038.55
2018-07-06T21:45:21.558Z,101038.55
2018-07-06T21:47:50.351Z,101042.12
2018-07-06T21:50:18.931Z,101045.95
2018-07-06T21:55:46.409Z,101041.93
2018-07-06T21:58:15.237Z,101050.25
2018-07-06T22:00:44.122Z,101046.36
2018-07-06T22:03:13.158Z,101045.88
2018-07-06T22:05:42.623Z,101050.53
2018-07-06T22:08:11.229Z,101047.48
2018-07-06T22:10:39.979Z,101056.12
2018-07-06T22:13:08.767Z,101069.20
2018-07-06T22:15:43.677Z,101060.05
2018-07-06T22:18:13.609Z,101059.70
2018-07-06T22:20:42.920Z,101059.06
2018-07-06T22:23:11.496Z,101066.09
2018-07-06T22:25:40.213Z,101066.42
2018-07-06T22:28:09.064Z,101065.08
2018-07-06T22:30:37.820Z,101067.94
2018-07-06T22:33:06.487Z,101061.91
2018-07-06T22:35:35.243Z,101068.77
2018-07-06T22:38:04.043Z,101067.72
2018-07-06T22:40:32.768Z,101065.25
2018-07-06T22:43:01.751Z,101068.69
2018-07-06T22:45:30.515Z,101071.18
2018-07-06T22:47:59.137Z,101073.86
2018-07-06T22:50:27.750Z,101071.50
2018-07-06T22:52:56.441Z,101071.99
2018-07-06T22:55:25.101Z,101075.16
2018-07-06T22:57:53.901Z,101071.70
2018-07-06T23:00:22.578Z,101070.38
2018-07-06T23:02:51.258Z,101067.34
2018-07-06T23:05:20.727Z,101074.11
2018-07-06T23:07:49.412Z,101067.11
2018-07-06T23:10:18.083Z,101063.73
2018-07-06T23:12:46.778Z,101064.72
2018-07-06T23:15:15.606Z,101067.11
2018-07-06T23:17:44.364Z,101073.12
2018-07-06T23:20:13.024Z,101066.75
2018-07-06T23:23:05.168Z,101067.88
2018-07-06T23:25:36.018Z,101071.89
2018-07-06T23:28:04.674Z,101072.18
2018-07-06T23:30:33.439Z,101074.30
2018-07-06T23:33:03.052Z,101071.44
2018-07-06T23:35:31.734Z,101072.75
2018-07-06T23:38:00.451Z,101076.27
2018-07-06T23:40:29.234Z,101076.27
2018-07-06T23:42:57.895Z,101073.52
2018-07-06T23:45:26.733Z,101079.36
2018-07-06T23:47:55.400Z,101081.02
2018-07-06T23:50:24.344Z,101075.59
2018-07-06T23:52:53.285Z,101077.29
2018-07-06T23:55:21.922Z,101075.45
2018-07-06T23:57:50.787Z,101076.66
